sensor_id;sensor_type;location;lat;lon;timestamp;temperature;humidity
3288;DHT22;3260;52.438;13.502;2022-07-06T04:01:14;17.10;1.00
3288;DHT22;3260;52.438;13.502;2022-07-06T04:03:42;17.10;1.00
3288;DHT22;3260;52.438;13.502;2022-07-06T04:06:11;17.10;1.00
3288;DHT22;3260;52.438;13.502;2022-07-06T04:08:39;17.00;1.00
3288;DHT22;3260;52.438;13.502;2022-07-06T04:11:07;17.00;1.00
3288;DHT22;3260;52.438;13.502;2022-07-06T04:13:35;17.00;1.00
3288;DHT22;3260;52.438;13.502;2022-07-06T04:16:06;17.00;1.00
3288;DHT22;3260;52.438;13.502;2022-07-06T04:18:36;17.10;1.00
3288;DHT22;3260;52.438;13.502;2022-07-06T04:21:04;17.10;1.00
3288;DHT22;3260;52.438;13.502;2022-07-06T04:23:32;17.20;1.00
3288;DHT22;3260;52.438;13.502;2022-07-06T04:26:00;17.30;1.00
3288;DHT22;3260;52.438;13.502;2022-07-06T04:28:29;17.40;1.00
3288;DHT22;3260;52.438;13.502;2022-07-06T04:30:57;17.40;1.00
3288;DHT22;3260;52.438;13.502;2022-07-06T04:33:25;17.60;1.00
3288;DHT22;3260;52.438;13.502;2022-07-06T04:35:55;17.60;1.00
3288;DHT22;3260;52.438;13.502;2022-07-06T04:38:23;17.70;1.00
3288;DHT22;3260;52.438;13.502;2022-07-06T04:40:52;17.70;1.00
3288;DHT22;3260;52.438;13.502;2022-07-06T04:43:20;17.70;1.00
3288;DHT22;3260;52.438;13.502;2022-07-06T04:45:48;17.70;1.00
3288;DHT22;3260;52.438;13.502;2022-07-06T04:48:16;17.70;1.00
3288;DHT22;3260;52.438;13.502;2022-07-06T04:50:44;17.60;1.00
3288;DHT22;3260;52.438;13.502;2022-07-06T04:53:13;17.50;1.00
3288;DHT22;3260;52.438;13.502;2022-07-06T04:55:41;17.40;1.00
3288;DHT22;3260;52.438;13.502;2022-07-06T04:58:09;17.40;1.00
3288;DHT22;3260;52.438;13.502;2022-07-06T05:00:37;17.40;1.00
3288;DHT22;3260;52.438;13.502;2022-07-06T05:03:06;17.60;1.00
3288;DHT22;3260;52.438;13.502;2022-07-06T05:05:34;17.80;1.00
3288;DHT22;3260;52.438;13.502;2022-07-06T05:08:02;17.90;1.00
3288;DHT22;3260;52.438;13.502;2022-07-06T05:10:32;18.10;1.00
3288;DHT22;3260;52.438;13.502;2022-07-06T05:13:00;18.30;1.00
3288;DHT22;3260;52.438;13.502;2022-07-06T05:15:28;18.40;1.00
3288;DHT22;3260;52.438;13.502;2022-07-06T05:17:57;18.40;1.00
3288;DHT22;3260;52.438;13.502;2022-07-06T05:20:25;18.40;1.00
3288;DHT22;3260;52.438;13.502;2022-07-06T05:22:53;18.40;1.00
3288;DHT22;3260;52.438;13.502;2022-07-06T05:25:21;18.50;1.00
3288;DHT22;3260;52.438;13.502;2022-07-06T05:27:51;18.50;1.00
3288;DHT22;3260;52.438;13.502;2022-07-06T05:30:19;18.40;1.00
3288;DHT22;3260;52.438;13.502;2022-07-06T05:32:47;18.40;1.00
3288;DHT22;3260;52.438;13.502;2022-07-06T05:35:15;18.30;1.00
3288;DHT22;3260;52.438;13.502;2022-07-06T05:38:03;18.20;1.00
3288;DHT22;3260;52.438;13.502;2022-07-06T05:40:32;18.00;1.00
3288;DHT22;3260;52.438;13.502;2022-07-06T05:43:01;17.90;1.00
3288;DHT22;3260;52.438;13.502;2022-07-06T05:45:30;17.80;1.00
3288;DHT22;3260;52.438;13.502;2022-07-06T05:47:58;17.90;1.00
3288;DHT22;3260;52.438;13.502;2022-07-06T05:50:43;18.00;1.00
3288;DHT22;3260;52.438;13.502;2022-07-06T05:53:12;18.20;1.00
3288;DHT22;3260;52.438;13.502;2022-07-06T05:55:45;18.30;1.00
3288;DHT22;3260;52.438;13.502;2022-07-06T05:58:15;18.40;1.00
3288;DHT22;3260;52.438;13.502;2022-07-06T06:00:43;18.30;1.00
3288;DHT22;3260;52.438;13.502;2022-07-06T06:03:11;18.40;1.00
3288;DHT22;3260;52.438;13.502;2022-07-06T06:05:40;18.40;1.00
3288;DHT22;3260;52.438;13.502;2022-07-06T06:08:08;18.50;1.00
3288;DHT22;3260;52.438;13.502;2022-07-06T06:10:36;18.50;1.00
3288;DHT22;3260;52.438;13.502;2022-07-06T06:13:05;18.40;1.00
3288;DHT22;3260;52.438;13.502;2022-07-06T06:15:35;18.40;1.00
3288;DHT22;3260;52.438;13.502;2022-07-06T06:18:03;18.40;1.00
3288;DHT22;3260;52.438;13.502;2022-07-06T06:20:32;18.40;1.00
3288;DHT22;3260;52.438;13.502;2022-07-06T06:23:00;18.40;1.00
3288;DHT22;3260;52.438;13.502;2022-07-06T06:25:32;18.40;1.00
3288;DHT22;3260;52.438;13.502;2022-07-06T06:28:02;18.50;1.00
3288;DHT22;3260;52.438;13.502;2022-07-06T06:30:31;18.60;1.00
3288;DHT22;3260;52.438;13.502;2022-07-06T06:33:07;18.80;1.00
3288;DHT22;3260;52.438;13.502;2022-07-06T06:35:37;18.90;1.00
3288;DHT22;3260;52.438;13.502;2022-07-06T06:38:06;19.00;1.00
3288;DHT22;3260;52.438;13.502;2022-07-06T06:40:34;19.00;1.00
3288;DHT22;3260;52.438;13.502;2022-07-06T06:43:03;19.10;1.00
3288;DHT22;3260;52.438;13.502;2022-07-06T06:45:31;19.20;1.00
3288;DHT22;3260;52.438;13.502;2022-07-06T06:47:59;19.30;1.00
3288;DHT22;3260;52.438;13.502;2022-07-06T06:50:29;19.30;1.00
3288;DHT22;3260;52.438;13.502;2022-07-06T06:52:57;19.30;1.00
3288;DHT22;3260;52.438;13.502;2022-07-06T06:55:25;19.20;1.00
3288;DHT22;3260;52.438;13.502;2022-07-06T06:57:53;19.00;1.00
3288;DHT22;3260;52.438;13.502;2022-07-06T07:00:22;18.90;1.00
3288;DHT22;3260;52.438;13.502;2022-07-06T07:02:50;19.00;1.00
3288;DHT22;3260;52.438;13.502;2022-07-06T07:05:18;19.00;1.00
3288;DHT22;3260;52.438;13.502;2022-07-06T07:07:47;19.20;1.00
3288;DHT22;3260;52.438;13.502;2022-07-06T07:10:15;19.40;1.00
3288;DHT22;3260;52.438;13.502;2022-07-06T07:12:44;19.70;1.00
3288;DHT22;3260;52.438;13.502;2022-07-06T07:15:13;20.00;1.00
3288;DHT22;3260;52.438;13.502;2022-07-06T07:17:41;20.20;1.00
3288;DHT22;3260;52.438;13.502;2022-07-06T07:20:11;20.50;1.00
3288;DHT22;3260;52.438;13.502;2022-07-06T07:22:39;20.70;1.00
3288;DHT22;3260;52.438;13.502;2022-07-06T07:25:09;20.70;1.00
3288;DHT22;3260;52.438;13.502;2022-07-06T07:27:37;20.50;1.00
3288;DHT22;3260;52.438;13.502;2022-07-06T07:30:06;20.40;1.00
3288;DHT22;3260;52.438;13.502;2022-07-06T07:32:35;20.40;1.00
3288;DHT22;3260;52.438;13.502;2022-07-06T07:35:04;20.50;1.00
3288;DHT22;3260;52.438;13.502;2022-07-06T07:37:32;20.50;1.00
3288;DHT22;3260;52.438;13.502;2022-07-06T07:40:00;20.40;1.00
3288;DHT22;3260;52.438;13.502;2022-07-06T07:42:30;20.40;1.00
3288;DHT22;3260;52.438;13.502;2022-07-06T07:44:59;20.30;1.00
3288;DHT22;3260;52.438;13.502;2022-07-06T07:47:27;20.40;1.00
3288;DHT22;3260;52.438;13.502;2022-07-06T07:49:55;20.40;1.00
3288;DHT22;3260;52.438;13.502;2022-07-06T07:52:23;20.60;1.00
3288;DHT22;3260;52.438;13.502;2022-07-06T07:54:51;20.50;1.00
3288;DHT22;3260;52.438;13.502;2022-07-06T07:57:41;20.40;1.00
3288;DHT22;3260;52.438;13.502;2022-07-06T08:00:10;20.20;1.00
3288;DHT22;3260;52.438;13.502;2022-07-06T08:02:39;20.10;1.00
3288;DHT22;3260;52.438;13.502;2022-07-06T08:05:07;20.20;1.00
3288;DHT22;3260;52.438;13.502;2022-07-06T08:07:39;20.30;1.00
3288;DHT22;3260;52.438;13.502;2022-07-06T08:10:08;20.70;1.00
3288;DHT22;3260;52.438;13.502;2022-07-06T08:12:37;21.00;1.00
3288;DHT22;3260;52.438;13.502;2022-07-06T08:15:13;21.10;1.00
3288;DHT22;3260;52.438;13.502;2022-07-06T08:17:41;21.20;1.00
3288;DHT22;3260;52.438;13.502;2022-07-06T08:20:10;21.10;1.00
3288;DHT22;3260;52.438;13.502;2022-07-06T08:22:38;21.10;1.00
3288;DHT22;3260;52.438;13.502;2022-07-06T08:25:08;20.90;1.00
3288;DHT22;3260;52.438;13.502;2022-07-06T08:27:36;20.80;1.00
3288;DHT22;3260;52.438;13.502;2022-07-06T08:30:05;20.90;1.00
3288;DHT22;3260;52.438;13.502;2022-07-06T08:32:38;21.10;1.00
3288;DHT22;3260;52.438;13.502;2022-07-06T08:35:27;21.40;1.00
3288;DHT22;3260;52.438;13.502;2022-07-06T08:37:55;21.70;1.00
3288;DHT22;3260;52.438;13.502;2022-07-06T08:40:24;21.80;1.00
3288;DHT22;3260;52.438;13.502;2022-07-06T08:42:54;21.80;1.00
3288;DHT22;3260;52.438;13.502;2022-07-06T08:45:25;21.70;1.00
3288;DHT22;3260;52.438;13.502;2022-07-06T08:47:55;21.60;1.00
3288;DHT22;3260;52.438;13.502;2022-07-06T08:50:26;21.70;1.00
3288;DHT22;3260;52.438;13.502;2022-07-06T08:52:54;21.80;1.00
3288;DHT22;3260;52.438;13.502;2022-07-06T08:55:22;22.00;1.00
3288;DHT22;3260;52.438;13.502;2022-07-06T08:57:52;22.10;1.00
3288;DHT22;3260;52.438;13.502;2022-07-06T09:00:22;21.90;1.00
3288;DHT22;3260;52.438;13.502;2022-07-06T09:02:52;22.00;1.00
3288;DHT22;3260;52.438;13.502;2022-07-06T09:05:24;21.80;1.00
3288;DHT22;3260;52.438;13.502;2022-07-06T09:07:53;21.80;1.00
3288;DHT22;3260;52.438;13.502;2022-07-06T09:10:26;21.60;1.00
3288;DHT22;3260;52.438;13.502;2022-07-06T09:13:02;21.40;1.00
3288;DHT22;3260;52.438;13.502;2022-07-06T09:15:32;21.30;1.00
3288;DHT22;3260;52.438;13.502;2022-07-06T09:18:03;21.10;1.00
3288;DHT22;3260;52.438;13.502;2022-07-06T09:20:32;20.90;1.00
3288;DHT22;3260;52.438;13.502;2022-07-06T09:23:04;20.80;1.00
3288;DHT22;3260;52.438;13.502;2022-07-06T09:25:40;20.70;1.00
3288;DHT22;3260;52.438;13.502;2022-07-06T09:28:08;20.60;1.00
3288;DHT22;3260;52.438;13.502;2022-07-06T09:30:36;20.50;1.00
3288;DHT22;3260;52.438;13.502;2022-07-06T09:33:08;20.50;1.00
3288;DHT22;3260;52.438;13.502;2022-07-06T09:35:39;20.40;1.00
3288;DHT22;3260;52.438;13.502;2022-07-06T09:38:10;20.30;1.00
3288;DHT22;3260;52.438;13.502;2022-07-06T09:40:41;20.30;1.00
3288;DHT22;3260;52.438;13.502;2022-07-06T09:43:12;20.50;1.00
3288;DHT22;3260;52.438;13.502;2022-07-06T09:45:43;20.60;1.00
3288;DHT22;3260;52.438;13.502;2022-07-06T09:48:15;20.80;1.00
3288;DHT22;3260;52.438;13.502;2022-07-06T09:50:50;21.10;1.00
3288;DHT22;3260;52.438;13.502;2022-07-06T09:53:20;21.40;1.00
3288;DHT22;3260;52.438;13.502;2022-07-06T09:55:51;21.80;1.00
3288;DHT22;3260;52.438;13.502;2022-07-06T09:58:22;22.10;1.00
3288;DHT22;3260;52.438;13.502;2022-07-06T10:01:10;22.40;1.00
3288;DHT22;3260;52.438;13.502;2022-07-06T10:03:40;22.70;1.00
3288;DHT22;3260;52.438;13.502;2022-07-06T10:06:09;22.60;1.00
3288;DHT22;3260;52.438;13.502;2022-07-06T10:08:39;22.80;1.00
3288;DHT22;3260;52.438;13.502;2022-07-06T10:11:07;23.00;1.00
3288;DHT22;3260;52.438;13.502;2022-07-06T10:13:40;23.10;1.00
3288;DHT22;3260;52.438;13.502;2022-07-06T10:16:09;23.10;1.00
3288;DHT22;3260;52.438;13.502;2022-07-06T10:18:39;23.10;1.00
3288;DHT22;3260;52.438;13.502;2022-07-06T10:21:10;23.10;1.00
3288;DHT22;3260;52.438;13.502;2022-07-06T10:23:40;23.20;1.00
3288;DHT22;3260;52.438;13.502;2022-07-06T10:26:09;23.20;1.00
3288;DHT22;3260;52.438;13.502;2022-07-06T10:28:41;22.80;1.00
3288;DHT22;3260;52.438;13.502;2022-07-06T10:31:10;22.50;1.00
3288;DHT22;3260;52.438;13.502;2022-07-06T10:33:41;22.50;1.00
3288;DHT22;3260;52.438;13.502;2022-07-06T10:36:11;22.60;1.00
3288;DHT22;3260;52.438;13.502;2022-07-06T10:38:48;22.80;1.00
3288;DHT22;3260;52.438;13.502;2022-07-06T10:41:18;22.70;1.00
3288;DHT22;3260;52.438;13.502;2022-07-06T10:43:56;22.90;1.00
3288;DHT22;3260;52.438;13.502;2022-07-06T10:46:28;23.40;1.00
3288;DHT22;3260;52.438;13.502;2022-07-06T10:49:14;23.90;1.00
3288;DHT22;3260;52.438;13.502;2022-07-06T10:52:05;24.00;1.00
3288;DHT22;3260;52.438;13.502;2022-07-06T10:54:39;24.10;1.00
3288;DHT22;3260;52.438;13.502;2022-07-06T10:57:09;24.10;1.00
3288;DHT22;3260;52.438;13.502;2022-07-06T10:59:38;24.30;1.00
3288;DHT22;3260;52.438;13.502;2022-07-06T11:02:13;24.40;1.00
3288;DHT22;3260;52.438;13.502;2022-07-06T11:04:45;24.60;1.00
3288;DHT22;3260;52.438;13.502;2022-07-06T11:07:16;24.60;1.00
3288;DHT22;3260;52.438;13.502;2022-07-06T11:09:55;24.70;1.00
3288;DHT22;3260;52.438;13.502;2022-07-06T11:12:25;25.00;1.00
3288;DHT22;3260;52.438;13.502;2022-07-06T11:14:53;25.50;1.00
3288;DHT22;3260;52.438;13.502;2022-07-06T11:17:21;25.90;1.00
3288;DHT22;3260;52.438;13.502;2022-07-06T11:19:55;26.10;1.00
3288;DHT22;3260;52.438;13.502;2022-07-06T11:22:26;26.50;1.00
3288;DHT22;3260;52.438;13.502;2022-07-06T11:24:57;26.60;1.00
3288;DHT22;3260;52.438;13.502;2022-07-06T11:27:26;26.40;1.00
3288;DHT22;3260;52.438;13.502;2022-07-06T11:29:55;26.30;1.00
3288;DHT22;3260;52.438;13.502;2022-07-06T11:32:24;26.60;1.00
3288;DHT22;3260;52.438;13.502;2022-07-06T11:34:57;27.00;1.00
3288;DHT22;3260;52.438;13.502;2022-07-06T11:37:26;26.50;1.00
3288;DHT22;3260;52.438;13.502;2022-07-06T11:39:54;25.80;1.00
3288;DHT22;3260;52.438;13.502;2022-07-06T11:42:22;24.90;1.00
3288;DHT22;3260;52.438;13.502;2022-07-06T11:44:53;24.30;1.00
3288;DHT22;3260;52.438;13.502;2022-07-06T11:47:30;23.60;1.00
3288;DHT22;3260;52.438;13.502;2022-07-06T11:50:00;23.00;1.00
3288;DHT22;3260;52.438;13.502;2022-07-06T11:52:30;23.10;1.00
3288;DHT22;3260;52.438;13.502;2022-07-06T11:54:58;23.20;1.00
3288;DHT22;3260;52.438;13.502;2022-07-06T11:57:30;23.30;1.00
3288;DHT22;3260;52.438;13.502;2022-07-06T12:00:00;23.70;1.00
3288;DHT22;3260;52.438;13.502;2022-07-06T12:02:28;24.10;1.00
3288;DHT22;3260;52.438;13.502;2022-07-06T12:04:57;24.50;1.00
3288;DHT22;3260;52.438;13.502;2022-07-06T12:07:26;24.60;1.00
3288;DHT22;3260;52.438;13.502;2022-07-06T12:09:54;25.10;1.00
3288;DHT22;3260;52.438;13.502;2022-07-06T12:12:24;26.10;1.00
3288;DHT22;3260;52.438;13.502;2022-07-06T12:14:52;27.40;1.00
3288;DHT22;3260;52.438;13.502;2022-07-06T12:17:21;28.20;1.00
3288;DHT22;3260;52.438;13.502;2022-07-06T12:19:53;28.60;1.00
3288;DHT22;3260;52.438;13.502;2022-07-06T12:22:24;28.60;1.00
3288;DHT22;3260;52.438;13.502;2022-07-06T12:24:54;28.80;1.00
3288;DHT22;3260;52.438;13.502;2022-07-06T12:27:26;28.30;1.00
3288;DHT22;3260;52.438;13.502;2022-07-06T12:30:08;27.80;1.00
3288;DHT22;3260;52.438;13.502;2022-07-06T12:32:37;27.40;1.00
3288;DHT22;3260;52.438;13.502;2022-07-06T12:35:06;27.30;1.00
3288;DHT22;3260;52.438;13.502;2022-07-06T12:37:37;26.90;1.00
3288;DHT22;3260;52.438;13.502;2022-07-06T12:40:12;26.50;1.00
3288;DHT22;3260;52.438;13.502;2022-07-06T12:42:45;26.10;1.00
3288;DHT22;3260;52.438;13.502;2022-07-06T12:45:14;26.10;1.00
3288;DHT22;3260;52.438;13.502;2022-07-06T12:47:56;26.40;1.00
3288;DHT22;3260;52.438;13.502;2022-07-06T12:50:32;26.90;1.00
3288;DHT22;3260;52.438;13.502;2022-07-06T12:53:04;27.30;1.00
3288;DHT22;3260;52.438;13.502;2022-07-06T12:55:33;27.70;1.00
3288;DHT22;3260;52.438;13.502;2022-07-06T12:58:01;28.60;1.00
3288;DHT22;3260;52.438;13.502;2022-07-06T13:00:43;29.90;1.00
3288;DHT22;3260;52.438;13.502;2022-07-06T13:03:12;30.10;1.00
3288;DHT22;3260;52.438;13.502;2022-07-06T13:05:49;30.00;1.00
3288;DHT22;3260;52.438;13.502;2022-07-06T13:08:18;30.00;1.00
3288;DHT22;3260;52.438;13.502;2022-07-06T13:10:47;29.80;1.00
3288;DHT22;3260;52.438;13.502;2022-07-06T13:13:15;29.30;1.00
3288;DHT22;3260;52.438;13.502;2022-07-06T13:15:43;28.80;1.00
3288;DHT22;3260;52.438;13.502;2022-07-06T13:18:11;27.60;1.00
3288;DHT22;3260;52.438;13.502;2022-07-06T13:20:39;26.10;1.00
3288;DHT22;3260;52.438;13.502;2022-07-06T13:23:08;25.50;1.00
3288;DHT22;3260;52.438;13.502;2022-07-06T13:25:37;25.40;1.00
3288;DHT22;3260;52.438;13.502;2022-07-06T13:28:06;25.20;1.00
3288;DHT22;3260;52.438;13.502;2022-07-06T13:30:34;25.00;1.00
3288;DHT22;3260;52.438;13.502;2022-07-06T13:33:02;24.70;1.00
3288;DHT22;3260;52.438;13.502;2022-07-06T13:35:30;24.90;1.00
3288;DHT22;3260;52.438;13.502;2022-07-06T13:37:58;25.20;1.00
3288;DHT22;3260;52.438;13.502;2022-07-06T13:40:28;25.40;1.00
3288;DHT22;3260;52.438;13.502;2022-07-06T13:42:57;26.60;1.00
3288;DHT22;3260;52.438;13.502;2022-07-06T13:45:25;28.10;1.00
3288;DHT22;3260;52.438;13.502;2022-07-06T13:47:55;29.60;1.00
3288;DHT22;3260;52.438;13.502;2022-07-06T13:50:23;29.50;1.00
3288;DHT22;3260;52.438;13.502;2022-07-06T13:52:51;29.10;1.00
3288;DHT22;3260;52.438;13.502;2022-07-06T13:55:19;28.50;1.00
3288;DHT22;3260;52.438;13.502;2022-07-06T13:57:47;27.70;1.00
3288;DHT22;3260;52.438;13.502;2022-07-06T14:00:17;26.50;1.00
3288;DHT22;3260;52.438;13.502;2022-07-06T14:02:45;25.70;1.00
3288;DHT22;3260;52.438;13.502;2022-07-06T14:05:14;25.10;1.00
3288;DHT22;3260;52.438;13.502;2022-07-06T14:07:42;24.70;1.00
3288;DHT22;3260;52.438;13.502;2022-07-06T14:10:11;24.50;1.00
3288;DHT22;3260;52.438;13.502;2022-07-06T14:12:40;24.10;1.00
3288;DHT22;3260;52.438;13.502;2022-07-06T14:15:08;24.00;1.00
3288;DHT22;3260;52.438;13.502;2022-07-06T14:17:38;24.00;1.00
3288;DHT22;3260;52.438;13.502;2022-07-06T14:20:07;24.30;1.00
3288;DHT22;3260;52.438;13.502;2022-07-06T14:22:36;24.30;1.00
3288;DHT22;3260;52.438;13.502;2022-07-06T14:25:04;24.20;1.00
3288;DHT22;3260;52.438;13.502;2022-07-06T14:27:33;24.50;1.00
3288;DHT22;3260;52.438;13.502;2022-07-06T14:30:03;25.50;1.00
3288;DHT22;3260;52.438;13.502;2022-07-06T14:32:32;25.70;1.00
3288;DHT22;3260;52.438;13.502;2022-07-06T14:35:01;25.00;1.00
3288;DHT22;3260;52.438;13.502;2022-07-06T14:37:29;24.70;1.00
3288;DHT22;3260;52.438;13.502;2022-07-06T14:39:57;24.60;1.00
3288;DHT22;3260;52.438;13.502;2022-07-06T14:42:26;24.20;1.00
3288;DHT22;3260;52.438;13.502;2022-07-06T14:44:54;24.00;1.00
3288;DHT22;3260;52.438;13.502;2022-07-06T14:47:22;24.10;1.00
3288;DHT22;3260;52.438;13.502;2022-07-06T14:49:50;24.70;1.00
3288;DHT22;3260;52.438;13.502;2022-07-06T14:52:22;25.10;1.00
3288;DHT22;3260;52.438;13.502;2022-07-06T14:54:50;25.20;1.00
3288;DHT22;3260;52.438;13.502;2022-07-06T14:57:18;25.00;1.00
3288;DHT22;3260;52.438;13.502;2022-07-06T14:59:46;24.70;1.00
3288;DHT22;3260;52.438;13.502;2022-07-06T15:02:14;24.20;1.00
3288;DHT22;3260;52.438;13.502;2022-07-06T15:04:42;23.80;1.00
3288;DHT22;3260;52.438;13.502;2022-07-06T15:07:10;23.50;1.00
3288;DHT22;3260;52.438;13.502;2022-07-06T15:09:40;23.30;1.00
3288;DHT22;3260;52.438;13.502;2022-07-06T15:12:09;23.00;1.00
3288;DHT22;3260;52.438;13.502;2022-07-06T15:14:37;22.90;1.00
3288;DHT22;3260;52.438;13.502;2022-07-06T15:17:05;22.60;1.00
3288;DHT22;3260;52.438;13.502;2022-07-06T15:19:34;22.50;1.00
3288;DHT22;3260;52.438;13.502;2022-07-06T15:22:02;22.40;1.00
3288;DHT22;3260;52.438;13.502;2022-07-06T15:24:31;22.30;1.00
3288;DHT22;3260;52.438;13.502;2022-07-06T15:27:01;22.20;1.00
3288;DHT22;3260;52.438;13.502;2022-07-06T15:29:30;22.00;1.00
3288;DHT22;3260;52.438;13.502;2022-07-06T15:31:58;21.90;1.00
3288;DHT22;3260;52.438;13.502;2022-07-06T15:34:26;21.90;1.00
3288;DHT22;3260;52.438;13.502;2022-07-06T15:36:55;21.80;1.00
3288;DHT22;3260;52.438;13.502;2022-07-06T15:39:23;21.80;1.00
3288;DHT22;3260;52.438;13.502;2022-07-06T15:41:51;21.70;1.00
3288;DHT22;3260;52.438;13.502;2022-07-06T15:44:21;21.70;1.00
3288;DHT22;3260;52.438;13.502;2022-07-06T15:46:49;21.70;1.00
3288;DHT22;3260;52.438;13.502;2022-07-06T15:49:17;21.70;1.00
3288;DHT22;3260;52.438;13.502;2022-07-06T15:51:45;21.90;1.00
3288;DHT22;3260;52.438;13.502;2022-07-06T15:54:14;22.10;1.00
3288;DHT22;3260;52.438;13.502;2022-07-06T15:56:42;22.40;1.00
3288;DHT22;3260;52.438;13.502;2022-07-06T15:59:10;22.80;1.00
3288;DHT22;3260;52.438;13.502;2022-07-06T16:01:40;23.40;1.00
3288;DHT22;3260;52.438;13.502;2022-07-06T16:04:08;24.40;1.00
3288;DHT22;3260;52.438;13.502;2022-07-06T16:06:37;25.20;1.00
3288;DHT22;3260;52.438;13.502;2022-07-06T16:09:25;26.00;1.00
3288;DHT22;3260;52.438;13.502;2022-07-06T16:11:53;26.80;1.00
3288;DHT22;3260;52.438;13.502;2022-07-06T16:14:21;27.50;1.00
3288;DHT22;3260;52.438;13.502;2022-07-06T16:16:51;27.40;1.00
3288;DHT22;3260;52.438;13.502;2022-07-06T16:19:19;27.50;1.00
3288;DHT22;3260;52.438;13.502;2022-07-06T16:21:47;27.60;1.00
3288;DHT22;3260;52.438;13.502;2022-07-06T16:24:15;27.30;1.00
3288;DHT22;3260;52.438;13.502;2022-07-06T16:26:43;27.30;1.00
3288;DHT22;3260;52.438;13.502;2022-07-06T16:29:12;27.70;1.00
3288;DHT22;3260;52.438;13.502;2022-07-06T16:31:40;27.90;1.00
3288;DHT22;3260;52.438;13.502;2022-07-06T16:34:09;28.60;1.00
3288;DHT22;3260;52.438;13.502;2022-07-06T16:36:37;30.00;1.00
3288;DHT22;3260;52.438;13.502;2022-07-06T16:39:05;30.30;1.00
3288;DHT22;3260;52.438;13.502;2022-07-06T16:41:34;29.90;1.00
3288;DHT22;3260;52.438;13.502;2022-07-06T16:44:02;28.80;1.00
3288;DHT22;3260;52.438;13.502;2022-07-06T16:46:31;28.50;1.00
3288;DHT22;3260;52.438;13.502;2022-07-06T16:48:59;28.50;1.00
3288;DHT22;3260;52.438;13.502;2022-07-06T16:51:28;28.40;1.00
3288;DHT22;3260;52.438;13.502;2022-07-06T16:53:57;28.50;1.00
3288;DHT22;3260;52.438;13.502;2022-07-06T16:56:25;29.40;1.00
3288;DHT22;3260;52.438;13.502;2022-07-06T16:58:53;30.50;1.00
3288;DHT22;3260;52.438;13.502;2022-07-06T17:01:26;31.50;1.00
3288;DHT22;3260;52.438;13.502;2022-07-06T17:03:54;32.20;1.00
3288;DHT22;3260;52.438;13.502;2022-07-06T17:06:23;32.20;1.00
3288;DHT22;3260;52.438;13.502;2022-07-06T17:08:53;31.40;1.00
3288;DHT22;3260;52.438;13.502;2022-07-06T17:11:22;30.40;1.00
3288;DHT22;3260;52.438;13.502;2022-07-06T17:13:50;29.10;1.00
3288;DHT22;3260;52.438;13.502;2022-07-06T17:16:19;27.50;1.00
3288;DHT22;3260;52.438;13.502;2022-07-06T17:18:47;26.80;1.00
3288;DHT22;3260;52.438;13.502;2022-07-06T17:21:15;26.30;1.00
3288;DHT22;3260;52.438;13.502;2022-07-06T17:23:45;25.70;1.00
3288;DHT22;3260;52.438;13.502;2022-07-06T17:26:14;25.10;1.00
3288;DHT22;3260;52.438;13.502;2022-07-06T17:28:42;24.50;1.00
3288;DHT22;3260;52.438;13.502;2022-07-06T17:31:10;24.00;1.00
3288;DHT22;3260;52.438;13.502;2022-07-06T17:33:39;23.50;1.00
3288;DHT22;3260;52.438;13.502;2022-07-06T17:36:07;23.20;1.00
3288;DHT22;3260;52.438;13.502;2022-07-06T17:38:36;23.10;1.00
3288;DHT22;3260;52.438;13.502;2022-07-06T17:41:04;22.80;1.00
3288;DHT22;3260;52.438;13.502;2022-07-06T17:43:34;22.40;1.00
3288;DHT22;3260;52.438;13.502;2022-07-06T17:46:15;22.20;1.00
3288;DHT22;3260;52.438;13.502;2022-07-06T17:48:43;22.10;1.00
3288;DHT22;3260;52.438;13.502;2022-07-06T17:51:11;22.00;1.00
3288;DHT22;3260;52.438;13.502;2022-07-06T17:53:39;21.80;1.00
3288;DHT22;3260;52.438;13.502;2022-07-06T17:56:07;21.40;1.00
3288;DHT22;3260;52.438;13.502;2022-07-06T17:58:37;21.30;1.00
3288;DHT22;3260;52.438;13.502;2022-07-06T18:01:05;21.10;1.00
3288;DHT22;3260;52.438;13.502;2022-07-06T18:03:33;21.00;1.00
3288;DHT22;3260;52.438;13.502;2022-07-06T18:06:01;21.00;1.00
3288;DHT22;3260;52.438;13.502;2022-07-06T18:08:31;20.90;1.00
3288;DHT22;3260;52.438;13.502;2022-07-06T18:11:00;20.80;1.00
3288;DHT22;3260;52.438;13.502;2022-07-06T18:13:28;20.70;1.00
3288;DHT22;3260;52.438;13.502;2022-07-06T18:15:58;20.60;1.00
3288;DHT22;3260;52.438;13.502;2022-07-06T18:18:27;20.40;1.00
3288;DHT22;3260;52.438;13.502;2022-07-06T18:20:55;20.20;1.00
3288;DHT22;3260;52.438;13.502;2022-07-06T18:23:25;20.20;1.00
3288;DHT22;3260;52.438;13.502;2022-07-06T18:25:55;20.20;1.00
3288;DHT22;3260;52.438;13.502;2022-07-06T18:28:24;20.10;1.00
3288;DHT22;3260;52.438;13.502;2022-07-06T18:30:52;20.00;1.00
3288;DHT22;3260;52.438;13.502;2022-07-06T18:33:21;20.00;1.00
3288;DHT22;3260;52.438;13.502;2022-07-06T18:35:51;20.00;1.00
3288;DHT22;3260;52.438;13.502;2022-07-06T18:38:21;19.90;1.00
3288;DHT22;3260;52.438;13.502;2022-07-06T18:40:49;19.80;1.00
3288;DHT22;3260;52.438;13.502;2022-07-06T18:43:18;19.70;1.00
3288;DHT22;3260;52.438;13.502;2022-07-06T18:45:46;19.60;1.00
3288;DHT22;3260;52.438;13.502;2022-07-06T18:48:14;19.60;1.00
3288;DHT22;3260;52.438;13.502;2022-07-06T18:50:44;19.60;1.00
3288;DHT22;3260;52.438;13.502;2022-07-06T18:53:12;19.60;1.00
3288;DHT22;3260;52.438;13.502;2022-07-06T18:55:42;19.60;1.00
3288;DHT22;3260;52.438;13.502;2022-07-06T18:58:11;19.60;1.00
3288;DHT22;3260;52.438;13.502;2022-07-06T19:00:39;19.60;1.00
3288;DHT22;3260;52.438;13.502;2022-07-06T19:03:08;19.50;1.00
3288;DHT22;3260;52.438;13.502;2022-07-06T19:05:36;19.50;1.00
3288;DHT22;3260;52.438;13.502;2022-07-06T19:08:06;19.50;1.00
3288;DHT22;3260;52.438;13.502;2022-07-06T19:10:34;19.50;1.00
3288;DHT22;3260;52.438;13.502;2022-07-06T19:13:03;19.40;1.00
3288;DHT22;3260;52.438;13.502;2022-07-06T19:15:31;19.40;1.00
3288;DHT22;3260;52.438;13.502;2022-07-06T19:17:59;19.40;1.00
3288;DHT22;3260;52.438;13.502;2022-07-06T19:20:28;19.40;1.00
3288;DHT22;3260;52.438;13.502;2022-07-06T19:22:56;19.40;1.00
3288;DHT22;3260;52.438;13.502;2022-07-06T19:25:25;19.30;1.00
3288;DHT22;3260;52.438;13.502;2022-07-06T19:27:54;19.20;1.00
3288;DHT22;3260;52.438;13.502;2022-07-06T19:30:22;19.10;1.00
3288;DHT22;3260;52.438;13.502;2022-07-06T19:32:50;19.00;1.00
3288;DHT22;3260;52.438;13.502;2022-07-06T19:35:18;18.90;1.00
3288;DHT22;3260;52.438;13.502;2022-07-06T19:37:46;18.80;1.00
3288;DHT22;3260;52.438;13.502;2022-07-06T19:40:14;18.80;1.00
3288;DHT22;3260;52.438;13.502;2022-07-06T19:42:44;18.70;1.00
3288;DHT22;3260;52.438;13.502;2022-07-06T19:45:17;18.70;1.00
3288;DHT22;3260;52.438;13.502;2022-07-06T19:47:45;18.60;1.00
3288;DHT22;3260;52.438;13.502;2022-07-06T19:50:14;18.60;1.00
3288;DHT22;3260;52.438;13.502;2022-07-06T19:52:42;18.50;1.00
3288;DHT22;3260;52.438;13.502;2022-07-06T19:55:10;18.50;1.00
3288;DHT22;3260;52.438;13.502;2022-07-06T19:57:38;18.40;1.00
3288;DHT22;3260;52.438;13.502;2022-07-06T20:00:09;18.30;1.00
3288;DHT22;3260;52.438;13.502;2022-07-06T20:02:38;18.30;1.00
3288;DHT22;3260;52.438;13.502;2022-07-06T20:05:06;18.20;1.00
3288;DHT22;3260;52.438;13.502;2022-07-06T20:07:35;18.20;1.00
3288;DHT22;3260;52.438;13.502;2022-07-06T20:10:04;18.20;1.00
3288;DHT22;3260;52.438;13.502;2022-07-06T20:12:33;18.10;1.00
3288;DHT22;3260;52.438;13.502;2022-07-06T20:15:01;18.00;1.00
3288;DHT22;3260;52.438;13.502;2022-07-06T20:17:32;18.00;1.00